sensor_id;sensor_type;location;lat;lon;timestamp;temperature;humidity
2407;DHT22;37709;53.480;9.688;2023-12-20T00:01:39;4.10;99.90
2407;DHT22;37709;53.480;9.688;2023-12-20T00:04:07;4.00;99.90
2407;DHT22;37709;53.480;9.688;2023-12-20T00:06:35;4.00;99.90
2407;DHT22;37709;53.480;9.688;2023-12-20T00:09:03;4.10;99.90
2407;DHT22;37709;53.480;9.688;2023-12-20T00:11:31;4.00;99.90
2407;DHT22;37709;53.480;9.688;2023-12-20T00:13:58;4.00;99.90
2407;DHT22;37709;53.480;9.688;2023-12-20T00:16:25;4.00;99.90
2407;DHT22;37709;53.480;9.688;2023-12-20T00:18:54;4.10;99.90
2407;DHT22;37709;53.480;9.688;2023-12-20T00:21:21;3.90;99.90
2407;DHT22;37709;53.480;9.688;2023-12-20T00:23:49;4.00;99.90
2407;DHT22;37709;53.480;9.688;2023-12-20T00:26:18;4.30;99.90
2407;DHT22;37709;53.480;9.688;2023-12-20T00:28:46;4.40;99.90
2407;DHT22;37709;53.480;9.688;2023-12-20T00:31:14;4.50;99.90
2407;DHT22;37709;53.480;9.688;2023-12-20T00:33:42;4.60;99.90
2407;DHT22;37709;53.480;9.688;2023-12-20T00:36:12;4.60;99.90
2407;DHT22;37709;53.480;9.688;2023-12-20T00:38:39;4.70;99.90
2407;DHT22;37709;53.480;9.688;2023-12-20T00:41:08;4.70;99.90
2407;DHT22;37709;53.480;9.688;2023-12-20T00:43:35;4.60;99.90
2407;DHT22;37709;53.480;9.688;2023-12-20T00:46:02;4.60;99.90
2407;DHT22;37709;53.480;9.688;2023-12-20T00:48:30;4.50;99.90
2407;DHT22;37709;53.480;9.688;2023-12-20T00:50:58;4.50;99.90
2407;DHT22;37709;53.480;9.688;2023-12-20T00:53:27;4.50;99.90
2407;DHT22;37709;53.480;9.688;2023-12-20T00:55:56;4.40;99.90
2407;DHT22;37709;53.480;9.688;2023-12-20T00:58:23;4.30;99.90
2407;DHT22;37709;53.480;9.688;2023-12-20T01:00:52;4.20;99.90
2407;DHT22;37709;53.480;9.688;2023-12-20T01:03:20;4.10;99.90
2407;DHT22;37709;53.480;9.688;2023-12-20T01:05:48;4.00;99.90
2407;DHT22;37709;53.480;9.688;2023-12-20T01:08:15;4.10;99.90
2407;DHT22;37709;53.480;9.688;2023-12-20T01:10:44;4.00;99.90
2407;DHT22;37709;53.480;9.688;2023-12-20T01:13:12;4.00;99.90
2407;DHT22;37709;53.480;9.688;2023-12-20T01:15:39;4.00;99.90
2407;DHT22;37709;53.480;9.688;2023-12-20T01:18:08;4.00;99.90
2407;DHT22;37709;53.480;9.688;2023-12-20T01:20:37;4.00;99.90
2407;DHT22;37709;53.480;9.688;2023-12-20T01:23:04;4.10;99.90
2407;DHT22;37709;53.480;9.688;2023-12-20T01:25:32;4.00;99.90
2407;DHT22;37709;53.480;9.688;2023-12-20T01:28:00;4.00;99.90
2407;DHT22;37709;53.480;9.688;2023-12-20T01:30:27;4.10;99.90
2407;DHT22;37709;53.480;9.688;2023-12-20T01:32:55;4.00;99.90
2407;DHT22;37709;53.480;9.688;2023-12-20T01:35:23;4.10;99.90
2407;DHT22;37709;53.480;9.688;2023-12-20T01:37:51;4.10;99.90
2407;DHT22;37709;53.480;9.688;2023-12-20T01:40:24;4.20;99.90
2407;DHT22;37709;53.480;9.688;2023-12-20T01:43:01;4.20;99.90
2407;DHT22;37709;53.480;9.688;2023-12-20T01:45:28;4.20;99.90
2407;DHT22;37709;53.480;9.688;2023-12-20T01:47:57;4.10;99.90
2407;DHT22;37709;53.480;9.688;2023-12-20T01:50:25;4.00;99.90
2407;DHT22;37709;53.480;9.688;2023-12-20T01:52:55;4.10;99.90
2407;DHT22;37709;53.480;9.688;2023-12-20T01:55:30;4.10;99.90
2407;DHT22;37709;53.480;9.688;2023-12-20T01:57:59;4.10;99.90
2407;DHT22;37709;53.480;9.688;2023-12-20T02:00:29;4.10;99.90
2407;DHT22;37709;53.480;9.688;2023-12-20T02:03:01;4.20;99.90
2407;DHT22;37709;53.480;9.688;2023-12-20T02:05:31;4.20;99.90
2407;DHT22;37709;53.480;9.688;2023-12-20T02:07:58;4.00;99.90
2407;DHT22;37709;53.480;9.688;2023-12-20T02:10:26;4.10;99.90
2407;DHT22;37709;53.480;9.688;2023-12-20T02:12:54;4.10;99.90
2407;DHT22;37709;53.480;9.688;2023-12-20T02:15:21;4.10;99.90
2407;DHT22;37709;53.480;9.688;2023-12-20T02:17:49;4.10;99.90
2407;DHT22;37709;53.480;9.688;2023-12-20T02:20:17;4.10;99.90
2407;DHT22;37709;53.480;9.688;2023-12-20T02:22:44;4.10;99.90
2407;DHT22;37709;53.480;9.688;2023-12-20T02:25:11;4.10;99.90
2407;DHT22;37709;53.480;9.688;2023-12-20T02:27:40;4.20;99.90
2407;DHT22;37709;53.480;9.688;2023-12-20T02:30:07;4.10;99.90
2407;DHT22;37709;53.480;9.688;2023-12-20T02:32:35;4.20;99.90
2407;DHT22;37709;53.480;9.688;2023-12-20T02:35:04;4.10;99.90
2407;DHT22;37709;53.480;9.688;2023-12-20T02:37:32;4.10;99.90
2407;DHT22;37709;53.480;9.688;2023-12-20T02:40:01;4.10;99.90
2407;DHT22;37709;53.480;9.688;2023-12-20T02:42:31;4.10;99.90
2407;DHT22;37709;53.480;9.688;2023-12-20T02:44:59;4.20;99.90
2407;DHT22;37709;53.480;9.688;2023-12-20T02:47:26;4.10;99.90
2407;DHT22;37709;53.480;9.688;2023-12-20T02:49:55;4.00;99.90
2407;DHT22;37709;53.480;9.688;2023-12-20T02:52:24;4.10;99.90
2407;DHT22;37709;53.480;9.688;2023-12-20T02:54:52;4.10;99.90
2407;DHT22;37709;53.480;9.688;2023-12-20T02:57:20;4.10;99.90
2407;DHT22;37709;53.480;9.688;2023-12-20T02:59:48;4.10;99.90
2407;DHT22;37709;53.480;9.688;2023-12-20T03:02:16;4.20;99.90
2407;DHT22;37709;53.480;9.688;2023-12-20T03:04:43;4.30;99.90
2407;DHT22;37709;53.480;9.688;2023-12-20T03:07:11;4.40;99.90
2407;DHT22;37709;53.480;9.688;2023-12-20T03:09:39;4.40;99.90
2407;DHT22;37709;53.480;9.688;2023-12-20T03:12:26;4.40;99.90
2407;DHT22;37709;53.480;9.688;2023-12-20T03:14:54;4.40;99.90
2407;DHT22;37709;53.480;9.688;2023-12-20T03:17:21;4.40;99.90
2407;DHT22;37709;53.480;9.688;2023-12-20T03:19:48;4.40;99.90
2407;DHT22;37709;53.480;9.688;2023-12-20T03:22:16;4.50;99.90
2407;DHT22;37709;53.480;9.688;2023-12-20T03:24:44;4.50;99.90
2407;DHT22;37709;53.480;9.688;2023-12-20T03:27:11;4.50;99.90
2407;DHT22;37709;53.480;9.688;2023-12-20T03:29:39;4.50;99.90
2407;DHT22;37709;53.480;9.688;2023-12-20T03:32:07;4.60;99.90
2407;DHT22;37709;53.480;9.688;2023-12-20T03:34:35;4.60;99.90
2407;DHT22;37709;53.480;9.688;2023-12-20T03:37:03;4.70;99.90
2407;DHT22;37709;53.480;9.688;2023-12-20T03:39:32;4.60;99.90
2407;DHT22;37709;53.480;9.688;2023-12-20T03:42:02;4.60;99.90
2407;DHT22;37709;53.480;9.688;2023-12-20T03:44:29;4.70;99.90
2407;DHT22;37709;53.480;9.688;2023-12-20T03:46:56;4.70;99.90
2407;DHT22;37709;53.480;9.688;2023-12-20T03:49:26;4.70;99.90
2407;DHT22;37709;53.480;9.688;2023-12-20T03:51:53;4.80;99.90
2407;DHT22;37709;53.480;9.688;2023-12-20T03:54:22;4.70;99.90
2407;DHT22;37709;53.480;9.688;2023-12-20T03:56:49;4.70;99.90
2407;DHT22;37709;53.480;9.688;2023-12-20T03:59:18;4.60;99.90
2407;DHT22;37709;53.480;9.688;2023-12-20T04:01:48;4.70;99.90
2407;DHT22;37709;53.480;9.688;2023-12-20T04:04:16;4.60;99.90
2407;DHT22;37709;53.480;9.688;2023-12-20T04:06:43;4.60;99.90
2407;DHT22;37709;53.480;9.688;2023-12-20T04:09:11;4.60;99.90
2407;DHT22;37709;53.480;9.688;2023-12-20T04:11:39;4.60;99.90
2407;DHT22;37709;53.480;9.688;2023-12-20T04:14:06;4.60;99.90
2407;DHT22;37709;53.480;9.688;2023-12-20T04:16:38;4.60;99.90
2407;DHT22;37709;53.480;9.688;2023-12-20T04:19:09;4.70;99.90
2407;DHT22;37709;53.480;9.688;2023-12-20T04:21:37;4.70;99.90
2407;DHT22;37709;53.480;9.688;2023-12-20T04:24:06;4.70;99.90
2407;DHT22;37709;53.480;9.688;2023-12-20T04:26:34;4.80;99.90
2407;DHT22;37709;53.480;9.688;2023-12-20T04:29:01;4.80;99.90
2407;DHT22;37709;53.480;9.688;2023-12-20T04:31:29;4.90;99.90
2407;DHT22;37709;53.480;9.688;2023-12-20T04:33:56;4.90;99.90
2407;DHT22;37709;53.480;9.688;2023-12-20T04:36:25;4.90;99.90
2407;DHT22;37709;53.480;9.688;2023-12-20T04:38:54;4.90;99.90
2407;DHT22;37709;53.480;9.688;2023-12-20T04:41:21;4.90;99.90
2407;DHT22;37709;53.480;9.688;2023-12-20T04:44:14;4.90;99.90
2407;DHT22;37709;53.480;9.688;2023-12-20T04:46:41;5.00;99.90
2407;DHT22;37709;53.480;9.688;2023-12-20T04:49:11;5.00;99.90
2407;DHT22;37709;53.480;9.688;2023-12-20T04:51:40;5.00;99.90
2407;DHT22;37709;53.480;9.688;2023-12-20T04:54:32;5.00;99.90
2407;DHT22;37709;53.480;9.688;2023-12-20T04:57:00;5.00;99.90
2407;DHT22;37709;53.480;9.688;2023-12-20T04:59:28;5.10;99.90
2407;DHT22;37709;53.480;9.688;2023-12-20T05:01:57;5.10;99.90
2407;DHT22;37709;53.480;9.688;2023-12-20T05:04:26;5.10;99.90
2407;DHT22;37709;53.480;9.688;2023-12-20T05:06:54;5.10;99.90
2407;DHT22;37709;53.480;9.688;2023-12-20T05:09:21;5.10;99.90
2407;DHT22;37709;53.480;9.688;2023-12-20T05:11:49;5.00;99.90
2407;DHT22;37709;53.480;9.688;2023-12-20T05:14:16;5.00;99.90
2407;DHT22;37709;53.480;9.688;2023-12-20T05:16:44;5.00;99.90
2407;DHT22;37709;53.480;9.688;2023-12-20T05:19:12;5.10;99.90
2407;DHT22;37709;53.480;9.688;2023-12-20T05:21:40;5.10;99.90
2407;DHT22;37709;53.480;9.688;2023-12-20T05:24:07;5.20;99.90
2407;DHT22;37709;53.480;9.688;2023-12-20T05:26:36;5.20;99.90
2407;DHT22;37709;53.480;9.688;2023-12-20T05:29:04;5.20;99.90
2407;DHT22;37709;53.480;9.688;2023-12-20T05:31:32;5.20;99.90
2407;DHT22;37709;53.480;9.688;2023-12-20T05:33:59;5.30;99.90
2407;DHT22;37709;53.480;9.688;2023-12-20T05:36:27;5.30;99.90
2407;DHT22;37709;53.480;9.688;2023-12-20T05:38:54;5.30;99.90
2407;DHT22;37709;53.480;9.688;2023-12-20T05:41:22;5.20;99.90
2407;DHT22;37709;53.480;9.688;2023-12-20T05:43:50;5.20;99.90
2407;DHT22;37709;53.480;9.688;2023-12-20T05:46:18;5.20;99.90
2407;DHT22;37709;53.480;9.688;2023-12-20T05:48:46;5.10;99.90
2407;DHT22;37709;53.480;9.688;2023-12-20T05:51:14;5.20;99.90
2407;DHT22;37709;53.480;9.688;2023-12-20T05:53:41;5.20;99.90
2407;DHT22;37709;53.480;9.688;2023-12-20T05:56:10;5.20;99.90
2407;DHT22;37709;53.480;9.688;2023-12-20T05:58:39;5.30;99.90
2407;DHT22;37709;53.480;9.688;2023-12-20T06:01:08;5.30;99.90
2407;DHT22;37709;53.480;9.688;2023-12-20T06:03:36;5.30;99.90
2407;DHT22;37709;53.480;9.688;2023-12-20T06:06:07;5.30;99.90
2407;DHT22;37709;53.480;9.688;2023-12-20T06:08:43;5.30;99.90
2407;DHT22;37709;53.480;9.688;2023-12-20T06:11:12;5.20;99.90
2407;DHT22;37709;53.480;9.688;2023-12-20T06:13:41;5.20;99.90
2407;DHT22;37709;53.480;9.688;2023-12-20T06:16:09;5.20;99.90
2407;DHT22;37709;53.480;9.688;2023-12-20T06:18:38;5.20;99.90
2407;DHT22;37709;53.480;9.688;2023-12-20T06:21:05;5.10;99.90
2407;DHT22;37709;53.480;9.688;2023-12-20T06:23:35;5.10;99.90
2407;DHT22;37709;53.480;9.688;2023-12-20T06:26:02;5.10;99.90
2407;DHT22;37709;53.480;9.688;2023-12-20T06:28:29;5.20;99.90
2407;DHT22;37709;53.480;9.688;2023-12-20T06:30:57;5.10;99.90
2407;DHT22;37709;53.480;9.688;2023-12-20T06:33:25;5.00;99.90
2407;DHT22;37709;53.480;9.688;2023-12-20T06:35:52;5.10;99.90
2407;DHT22;37709;53.480;9.688;2023-12-20T06:38:20;5.10;99.90
2407;DHT22;37709;53.480;9.688;2023-12-20T06:40:47;5.10;99.90
2407;DHT22;37709;53.480;9.688;2023-12-20T06:43:15;5.10;99.90
2407;DHT22;37709;53.480;9.688;2023-12-20T06:46:03;5.10;99.90
2407;DHT22;37709;53.480;9.688;2023-12-20T06:48:30;5.20;99.90
2407;DHT22;37709;53.480;9.688;2023-12-20T06:51:00;5.30;99.90
2407;DHT22;37709;53.480;9.688;2023-12-20T06:53:27;5.30;99.90
2407;DHT22;37709;53.480;9.688;2023-12-20T06:55:55;5.30;99.90
2407;DHT22;37709;53.480;9.688;2023-12-20T06:58:25;5.10;99.90
2407;DHT22;37709;53.480;9.688;2023-12-20T07:00:55;5.00;99.90
2407;DHT22;37709;53.480;9.688;2023-12-20T07:03:23;4.90;99.90
2407;DHT22;37709;53.480;9.688;2023-12-20T07:05:50;5.00;99.90
2407;DHT22;37709;53.480;9.688;2023-12-20T07:08:18;5.00;99.90
2407;DHT22;37709;53.480;9.688;2023-12-20T07:10:47;5.00;99.90
2407;DHT22;37709;53.480;9.688;2023-12-20T07:13:15;5.20;99.90
2407;DHT22;37709;53.480;9.688;2023-12-20T07:15:43;5.30;99.90
2407;DHT22;37709;53.480;9.688;2023-12-20T07:18:13;5.30;99.90
2407;DHT22;37709;53.480;9.688;2023-12-20T07:20:42;5.40;99.90
2407;DHT22;37709;53.480;9.688;2023-12-20T07:23:10;5.30;99.90
2407;DHT22;37709;53.480;9.688;2023-12-20T07:25:41;5.30;99.90
2407;DHT22;37709;53.480;9.688;2023-12-20T07:28:08;5.40;99.90
2407;DHT22;37709;53.480;9.688;2023-12-20T07:30:37;5.40;99.90
2407;DHT22;37709;53.480;9.688;2023-12-20T07:33:04;5.60;99.90
2407;DHT22;37709;53.480;9.688;2023-12-20T07:35:34;5.60;99.90
2407;DHT22;37709;53.480;9.688;2023-12-20T07:38:01;5.70;99.90
2407;DHT22;37709;53.480;9.688;2023-12-20T07:40:30;5.70;99.90
2407;DHT22;37709;53.480;9.688;2023-12-20T07:42:57;5.70;99.90
2407;DHT22;37709;53.480;9.688;2023-12-20T07:45:26;5.70;99.90
2407;DHT22;37709;53.480;9.688;2023-12-20T07:47:54;5.70;99.90
2407;DHT22;37709;53.480;9.688;2023-12-20T07:50:22;5.70;99.90
2407;DHT22;37709;53.480;9.688;2023-12-20T07:53:15;5.70;99.90
2407;DHT22;37709;53.480;9.688;2023-12-20T07:55:42;5.80;99.90
2407;DHT22;37709;53.480;9.688;2023-12-20T07:58:10;5.80;99.90
2407;DHT22;37709;53.480;9.688;2023-12-20T08:00:37;5.80;99.90
2407;DHT22;37709;53.480;9.688;2023-12-20T08:03:05;5.90;99.90
2407;DHT22;37709;53.480;9.688;2023-12-20T08:05:34;5.90;99.90
2407;DHT22;37709;53.480;9.688;2023-12-20T08:08:06;5.90;99.90
2407;DHT22;37709;53.480;9.688;2023-12-20T08:10:34;5.90;99.90
2407;DHT22;37709;53.480;9.688;2023-12-20T08:13:01;6.00;99.90
2407;DHT22;37709;53.480;9.688;2023-12-20T08:15:29;6.00;99.90
2407;DHT22;37709;53.480;9.688;2023-12-20T08:17:58;6.10;99.90
2407;DHT22;37709;53.480;9.688;2023-12-20T08:20:27;5.90;99.90
2407;DHT22;37709;53.480;9.688;2023-12-20T08:23:06;5.80;99.90
2407;DHT22;37709;53.480;9.688;2023-12-20T08:25:33;5.90;99.90
2407;DHT22;37709;53.480;9.688;2023-12-20T08:28:04;5.90;99.90
2407;DHT22;37709;53.480;9.688;2023-12-20T08:30:33;6.10;99.90
2407;DHT22;37709;53.480;9.688;2023-12-20T08:33:01;6.00;99.90
2407;DHT22;37709;53.480;9.688;2023-12-20T08:35:30;6.20;99.90
2407;DHT22;37709;53.480;9.688;2023-12-20T08:37:57;6.50;99.90
2407;DHT22;37709;53.480;9.688;2023-12-20T08:40:28;6.60;99.90
2407;DHT22;37709;53.480;9.688;2023-12-20T08:42:55;6.70;99.90
2407;DHT22;37709;53.480;9.688;2023-12-20T08:45:23;6.40;99.90
2407;DHT22;37709;53.480;9.688;2023-12-20T08:47:50;6.10;99.90
2407;DHT22;37709;53.480;9.688;2023-12-20T08:50:18;5.80;99.90
2407;DHT22;37709;53.480;9.688;2023-12-20T08:52:46;5.70;99.90
2407;DHT22;37709;53.480;9.688;2023-12-20T08:55:14;5.60;99.90
2407;DHT22;37709;53.480;9.688;2023-12-20T08:57:43;5.60;99.90
2407;DHT22;37709;53.480;9.688;2023-12-20T09:00:13;5.60;99.90
2407;DHT22;37709;53.480;9.688;2023-12-20T09:02:41;5.50;99.90
2407;DHT22;37709;53.480;9.688;2023-12-20T09:05:08;5.50;99.90
2407;DHT22;37709;53.480;9.688;2023-12-20T09:07:36;5.40;99.90
2407;DHT22;37709;53.480;9.688;2023-12-20T09:10:03;5.30;99.90
2407;DHT22;37709;53.480;9.688;2023-12-20T09:12:32;5.20;99.90
2407;DHT22;37709;53.480;9.688;2023-12-20T09:15:00;5.20;99.90
2407;DHT22;37709;53.480;9.688;2023-12-20T09:17:31;5.20;99.90
2407;DHT22;37709;53.480;9.688;2023-12-20T09:20:03;5.20;99.90
2407;DHT22;37709;53.480;9.688;2023-12-20T09:22:33;5.10;99.90
2407;DHT22;37709;53.480;9.688;2023-12-20T09:25:01;5.10;99.90
2407;DHT22;37709;53.480;9.688;2023-12-20T09:27:29;5.10;99.90
2407;DHT22;37709;53.480;9.688;2023-12-20T09:29:58;5.10;99.90
2407;DHT22;37709;53.480;9.688;2023-12-20T09:32:25;5.00;99.90
2407;DHT22;37709;53.480;9.688;2023-12-20T09:34:53;4.90;99.90
2407;DHT22;37709;53.480;9.688;2023-12-20T09:37:27;4.70;99.90
2407;DHT22;37709;53.480;9.688;2023-12-20T09:39:55;4.70;99.90
2407;DHT22;37709;53.480;9.688;2023-12-20T09:42:58;4.80;99.90
2407;DHT22;37709;53.480;9.688;2023-12-20T09:45:27;4.90;99.90
2407;DHT22;37709;53.480;9.688;2023-12-20T09:47:55;5.10;99.90
2407;DHT22;37709;53.480;9.688;2023-12-20T09:50:24;5.20;99.90
2407;DHT22;37709;53.480;9.688;2023-12-20T09:52:53;5.30;99.90
2407;DHT22;37709;53.480;9.688;2023-12-20T09:55:21;5.30;99.90
2407;DHT22;37709;53.480;9.688;2023-12-20T09:57:49;5.30;99.90
2407;DHT22;37709;53.480;9.688;2023-12-20T10:00:18;5.30;99.90
2407;DHT22;37709;53.480;9.688;2023-12-20T10:02:58;5.20;99.90
2407;DHT22;37709;53.480;9.688;2023-12-20T10:05:31;5.20;99.90
2407;DHT22;37709;53.480;9.688;2023-12-20T10:08:01;5.20;99.90
2407;DHT22;37709;53.480;9.688;2023-12-20T10:10:30;5.10;99.90
2407;DHT22;37709;53.480;9.688;2023-12-20T10:13:12;5.10;99.90
2407;DHT22;37709;53.480;9.688;2023-12-20T10:15:42;5.40;99.90
2407;DHT22;37709;53.480;9.688;2023-12-20T10:18:11;5.20;99.90
2407;DHT22;37709;53.480;9.688;2023-12-20T10:20:43;5.50;99.90
2407;DHT22;37709;53.480;9.688;2023-12-20T10:23:11;5.50;99.90
2407;DHT22;37709;53.480;9.688;2023-12-20T10:25:40;5.20;99.90
2407;DHT22;37709;53.480;9.688;2023-12-20T10:28:12;5.10;99.90
2407;DHT22;37709;53.480;9.688;2023-12-20T10:30:41;4.70;99.90
2407;DHT22;37709;53.480;9.688;2023-12-20T10:33:11;4.70;99.90
2407;DHT22;37709;53.480;9.688;2023-12-20T10:35:40;4.90;99.90
2407;DHT22;37709;53.480;9.688;2023-12-20T10:38:14;5.00;99.90
2407;DHT22;37709;53.480;9.688;2023-12-20T10:40:45;5.00;99.90
2407;DHT22;37709;53.480;9.688;2023-12-20T10:43:15;5.00;99.90
2407;DHT22;37709;53.480;9.688;2023-12-20T10:45:42;5.00;99.90
2407;DHT22;37709;53.480;9.688;2023-12-20T10:48:13;5.20;99.90
2407;DHT22;37709;53.480;9.688;2023-12-20T10:50:43;5.40;99.90
2407;DHT22;37709;53.480;9.688;2023-12-20T10:53:12;5.40;99.90
2407;DHT22;37709;53.480;9.688;2023-12-20T10:55:43;5.30;99.90
2407;DHT22;37709;53.480;9.688;2023-12-20T10:58:11;5.40;99.90
2407;DHT22;37709;53.480;9.688;2023-12-20T11:00:43;5.70;99.90
2407;DHT22;37709;53.480;9.688;2023-12-20T11:03:13;6.10;99.90
2407;DHT22;37709;53.480;9.688;2023-12-20T11:06:11;6.10;99.90
2407;DHT22;37709;53.480;9.688;2023-12-20T11:08:55;6.00;99.90
2407;DHT22;37709;53.480;9.688;2023-12-20T11:11:59;6.00;99.90
2407;DHT22;37709;53.480;9.688;2023-12-20T11:14:38;6.00;99.90
2407;DHT22;37709;53.480;9.688;2023-12-20T11:17:10;5.80;99.90
2407;DHT22;37709;53.480;9.688;2023-12-20T11:20:05;5.80;99.90
2407;DHT22;37709;53.480;9.688;2023-12-20T11:22:33;5.60;99.90
2407;DHT22;37709;53.480;9.688;2023-12-20T11:25:08;5.50;99.90
2407;DHT22;37709;53.480;9.688;2023-12-20T11:27:41;5.80;99.90
2407;DHT22;37709;53.480;9.688;2023-12-20T11:30:12;7.50;99.90
2407;DHT22;37709;53.480;9.688;2023-12-20T11:32:41;9.10;99.90
2407;DHT22;37709;53.480;9.688;2023-12-20T11:37:41;11.20;99.90
2407;DHT22;37709;53.480;9.688;2023-12-20T11:40:17;12.20;99.90
2407;DHT22;37709;53.480;9.688;2023-12-20T11:42:48;12.50;99.90
2407;DHT22;37709;53.480;9.688;2023-12-20T11:45:18;12.40;99.90
2407;DHT22;37709;53.480;9.688;2023-12-20T11:47:47;12.90;99.90
2407;DHT22;37709;53.480;9.688;2023-12-20T11:50:19;13.30;99.90
2407;DHT22;37709;53.480;9.688;2023-12-20T11:52:48;12.40;99.90
2407;DHT22;37709;53.480;9.688;2023-12-20T11:55:15;9.80;99.90
2407;DHT22;37709;53.480;9.688;2023-12-20T11:57:44;8.20;99.90
2407;DHT22;37709;53.480;9.688;2023-12-20T12:00:13;7.50;99.90
2407;DHT22;37709;53.480;9.688;2023-12-20T12:02:41;6.90;99.90
2407;DHT22;37709;53.480;9.688;2023-12-20T12:05:10;6.50;99.90
2407;DHT22;37709;53.480;9.688;2023-12-20T12:07:39;6.30;99.90
2407;DHT22;37709;53.480;9.688;2023-12-20T12:10:07;6.30;99.90
2407;DHT22;37709;53.480;9.688;2023-12-20T12:12:35;6.20;99.90
2407;DHT22;37709;53.480;9.688;2023-12-20T12:15:05;5.90;99.90
2407;DHT22;37709;53.480;9.688;2023-12-20T12:17:32;6.80;99.90
2407;DHT22;37709;53.480;9.688;2023-12-20T12:20:05;6.70;99.90
2407;DHT22;37709;53.480;9.688;2023-12-20T12:22:35;6.50;99.90
2407;DHT22;37709;53.480;9.688;2023-12-20T12:25:10;8.30;99.90
2407;DHT22;37709;53.480;9.688;2023-12-20T12:27:40;10.20;99.90
2407;DHT22;37709;53.480;9.688;2023-12-20T12:30:10;10.60;99.90
2407;DHT22;37709;53.480;9.688;2023-12-20T12:32:40;10.20;99.90
2407;DHT22;37709;53.480;9.688;2023-12-20T12:35:09;10.00;99.90
2407;DHT22;37709;53.480;9.688;2023-12-20T12:37:40;9.70;99.90
2407;DHT22;37709;53.480;9.688;2023-12-20T12:40:12;8.30;99.90
2407;DHT22;37709;53.480;9.688;2023-12-20T12:42:43;7.60;99.90
2407;DHT22;37709;53.480;9.688;2023-12-20T12:45:11;7.40;99.90
2407;DHT22;37709;53.480;9.688;2023-12-20T12:47:40;7.90;99.90
2407;DHT22;37709;53.480;9.688;2023-12-20T12:50:08;9.40;99.90
2407;DHT22;37709;53.480;9.688;2023-12-20T12:52:36;10.60;99.90
2407;DHT22;37709;53.480;9.688;2023-12-20T12:55:03;11.20;99.90
2407;DHT22;37709;53.480;9.688;2023-12-20T12:57:32;11.60;99.90
2407;DHT22;37709;53.480;9.688;2023-12-20T13:00:02;11.00;99.90
2407;DHT22;37709;53.480;9.688;2023-12-20T13:02:30;9.20;99.90
2407;DHT22;37709;53.480;9.688;2023-12-20T13:04:58;8.20;99.90
2407;DHT22;37709;53.480;9.688;2023-12-20T13:07:26;7.80;99.90
2407;DHT22;37709;53.480;9.688;2023-12-20T13:09:55;7.40;99.90
2407;DHT22;37709;53.480;9.688;2023-12-20T13:12:23;7.20;99.90
2407;DHT22;37709;53.480;9.688;2023-12-20T13:14:51;6.90;99.90
2407;DHT22;37709;53.480;9.688;2023-12-20T13:17:20;6.90;99.90
2407;DHT22;37709;53.480;9.688;2023-12-20T13:19:48;6.90;99.90
2407;DHT22;37709;53.480;9.688;2023-12-20T13:22:16;7.20;99.90
2407;DHT22;37709;53.480;9.688;2023-12-20T13:24:45;7.40;99.90
2407;DHT22;37709;53.480;9.688;2023-12-20T13:27:14;7.20;99.90
2407;DHT22;37709;53.480;9.688;2023-12-20T13:29:41;6.90;99.90
2407;DHT22;37709;53.480;9.688;2023-12-20T13:32:10;7.10;99.90
2407;DHT22;37709;53.480;9.688;2023-12-20T13:34:37;7.50;99.90
2407;DHT22;37709;53.480;9.688;2023-12-20T13:37:05;7.80;99.90
2407;DHT22;37709;53.480;9.688;2023-12-20T13:39:32;7.80;99.90
2407;DHT22;37709;53.480;9.688;2023-12-20T13:42:00;7.60;99.90
2407;DHT22;37709;53.480;9.688;2023-12-20T13:44:29;7.30;99.90
2407;DHT22;37709;53.480;9.688;2023-12-20T13:46:57;7.00;99.90
2407;DHT22;37709;53.480;9.688;2023-12-20T13:49:24;6.70;99.90
2407;DHT22;37709;53.480;9.688;2023-12-20T13:51:54;6.60;99.90
2407;DHT22;37709;53.480;9.688;2023-12-20T13:54:23;6.40;99.90
2407;DHT22;37709;53.480;9.688;2023-12-20T13:56:51;6.20;99.90
2407;DHT22;37709;53.480;9.688;2023-12-20T13:59:39;6.20;99.90
2407;DHT22;37709;53.480;9.688;2023-12-20T14:02:07;6.10;99.90
2407;DHT22;37709;53.480;9.688;2023-12-20T14:04:35;6.00;99.90
2407;DHT22;37709;53.480;9.688;2023-12-20T14:07:10;5.90;99.90
2407;DHT22;37709;53.480;9.688;2023-12-20T14:09:40;5.90;99.90
2407;DHT22;37709;53.480;9.688;2023-12-20T14:12:15;5.70;99.90
2407;DHT22;37709;53.480;9.688;2023-12-20T14:14:42;5.60;99.90
2407;DHT22;37709;53.480;9.688;2023-12-20T14:17:12;5.60;99.90
2407;DHT22;37709;53.480;9.688;2023-12-20T14:19:39;5.60;99.90
2407;DHT22;37709;53.480;9.688;2023-12-20T14:22:08;5.70;99.90
2407;DHT22;37709;53.480;9.688;2023-12-20T14:24:36;5.60;99.90
2407;DHT22;37709;53.480;9.688;2023-12-20T14:27:04;5.60;99.90
2407;DHT22;37709;53.480;9.688;2023-12-20T14:29:31;5.40;99.90
2407;DHT22;37709;53.480;9.688;2023-12-20T14:31:59;5.20;99.90
2407;DHT22;37709;53.480;9.688;2023-12-20T14:34:28;5.10;99.90
2407;DHT22;37709;53.480;9.688;2023-12-20T14:36:57;5.10;99.90
2407;DHT22;37709;53.480;9.688;2023-12-20T14:39:25;5.00;99.90
2407;DHT22;37709;53.480;9.688;2023-12-20T14:41:53;5.00;99.90
2407;DHT22;37709;53.480;9.688;2023-12-20T14:44:21;5.00;99.90
2407;DHT22;37709;53.480;9.688;2023-12-20T14:46:48;4.90;99.90
2407;DHT22;37709;53.480;9.688;2023-12-20T14:49:16;4.90;99.90
2407;DHT22;37709;53.480;9.688;2023-12-20T14:51:44;5.00;99.90
2407;DHT22;37709;53.480;9.688;2023-12-20T14:54:11;5.00;99.90
2407;DHT22;37709;53.480;9.688;2023-12-20T14:56:40;5.10;99.90
2407;DHT22;37709;53.480;9.688;2023-12-20T14:59:09;5.10;99.90
2407;DHT22;37709;53.480;9.688;2023-12-20T15:01:36;4.90;99.90
2407;DHT22;37709;53.480;9.688;2023-12-20T15:04:05;5.00;99.90
2407;DHT22;37709;53.480;9.688;2023-12-20T15:06:32;4.90;99.90
2407;DHT22;37709;53.480;9.688;2023-12-20T15:09:01;4.90;99.90
2407;DHT22;37709;53.480;9.688;2023-12-20T15:11:37;4.70;99.90
2407;DHT22;37709;53.480;9.688;2023-12-20T15:14:09;4.80;99.90
2407;DHT22;37709;53.480;9.688;2023-12-20T15:16:38;4.80;99.90
2407;DHT22;37709;53.480;9.688;2023-12-20T15:19:09;4.80;99.90
2407;DHT22;37709;53.480;9.688;2023-12-20T15:21:37;4.70;99.90
2407;DHT22;37709;53.480;9.688;2023-12-20T15:24:13;4.70;99.90
2407;DHT22;37709;53.480;9.688;2023-12-20T15:26:46;4.60;99.90
2407;DHT22;37709;53.480;9.688;2023-12-20T15:29:14;4.60;99.90
2407;DHT22;37709;53.480;9.688;2023-12-20T15:31:46;4.50;99.90
2407;DHT22;37709;53.480;9.688;2023-12-20T15:34:16;4.60;99.90
2407;DHT22;37709;53.480;9.688;2023-12-20T15:36:45;4.50;99.90
2407;DHT22;37709;53.480;9.688;2023-12-20T15:39:14;4.40;99.90
2407;DHT22;37709;53.480;9.688;2023-12-20T15:41:43;4.40;99.90
2407;DHT22;37709;53.480;9.688;2023-12-20T15:44:12;4.40;99.90
2407;DHT22;37709;53.480;9.688;2023-12-20T15:46:39;4.30;99.90
2407;DHT22;37709;53.480;9.688;2023-12-20T15:49:12;4.20;99.90
2407;DHT22;37709;53.480;9.688;2023-12-20T15:51:39;4.10;99.90
2407;DHT22;37709;53.480;9.688;2023-12-20T15:54:07;4.20;99.90
2407;DHT22;37709;53.480;9.688;2023-12-20T15:56:35;4.20;99.90
2407;DHT22;37709;53.480;9.688;2023-12-20T15:59:03;4.20;99.90
2407;DHT22;37709;53.480;9.688;2023-12-20T16:01:31;4.30;99.90
2407;DHT22;37709;53.480;9.688;2023-12-20T16:03:59;4.40;99.90
2407;DHT22;37709;53.480;9.688;2023-12-20T16:06:26;4.50;99.90
2407;DHT22;37709;53.480;9.688;2023-12-20T16:08:54;4.50;99.90
2407;DHT22;37709;53.480;9.688;2023-12-20T16:11:24;4.60;99.90
2407;DHT22;37709;53.480;9.688;2023-12-20T16:13:52;4.80;99.90
2407;DHT22;37709;53.480;9.688;2023-12-20T16:16:20;4.70;99.90
2407;DHT22;37709;53.480;9.688;2023-12-20T16:18:48;4.80;99.90